Time;durP1;ratioP1;P1;durP2;ratioP2;P2;SDS_P1;SDS_P2;PMS_P1;PMS_P2;Temp;Humidity;BMP_temperature;BMP_pressure;BME280_temperature;BME280_humidity;BME280_pressure;Samples;Min_cycle;Max_cycle;Signal;HPM_P1;HPM_P2
2024/03/30 00:00:43;;;;;;;1.60;1.27;;;12.10;99.90;;;;;;4943883;28;21034;-69
2024/03/30 00:03:10;;;;;;;1.53;1.23;;;12.20;99.90;;;;;;4952286;28;20509;-69
2024/03/30 00:05:37;;;;;;;1.00;0.73;;;12.10;99.90;;;;;;4946391;28;20467;-70
2024/03/30 00:08:03;;;;;;;2.97;1.50;;;12.10;99.90;;;;;;4950688;28;20856;-70
2024/03/30 00:10:30;;;;;;;1.73;1.20;;;12.10;99.90;;;;;;4954915;28;21112;-69
2024/03/30 00:12:56;;;;;;;1.67;1.10;;;12.10;99.90;;;;;;4958805;28;20463;-69
2024/03/30 00:15:23;;;;;;;2.20;2.00;;;12.00;99.90;;;;;;4958135;28;20468;-69
2024/03/30 00:17:49;;;;;;;1.53;1.13;;;12.00;99.90;;;;;;4959880;28;20683;-69
2024/03/30 00:20:17;;;;;;;1.30;1.00;;;12.00;99.90;;;;;;4958911;28;20474;-69
2024/03/30 00:22:43;;;;;;;1.10;1.00;;;12.00;99.90;;;;;;4951427;28;20238;-69
2024/03/30 00:25:10;;;;;;;1.80;1.27;;;12.00;99.90;;;;;;4958082;28;20522;-69
2024/03/30 00:27:36;;;;;;;1.40;1.20;;;12.10;99.90;;;;;;4953042;28;20209;-69
2024/03/30 00:30:03;;;;;;;2.10;1.10;;;12.10;99.90;;;;;;4961638;28;20451;-69
2024/03/30 00:32:28;;;;;;;4.17;1.37;;;12.10;99.90;;;;;;4953871;28;20568;-69
2024/03/30 00:34:55;;;;;;;2.07;1.30;;;12.10;99.90;;;;;;4958689;28;20458;-69
2024/03/30 00:37:22;;;;;;;1.20;1.00;;;12.10;99.90;;;;;;4964148;28;20330;-70
2024/03/30 00:39:49;;;;;;;1.77;1.40;;;12.10;99.90;;;;;;4960786;28;20944;-69
2024/03/30 00:42:15;;;;;;;1.87;1.00;;;12.10;99.90;;;;;;4954478;28;20457;-69
2024/03/30 00:44:41;;;;;;;1.40;1.30;;;12.10;99.90;;;;;;4963972;28;20483;-69
2024/03/30 00:47:07;;;;;;;1.20;1.10;;;12.00;99.90;;;;;;4966031;28;20231;-69
2024/03/30 00:49:34;;;;;;;1.63;1.20;;;11.80;99.90;;;;;;4962427;28;20490;-69
2024/03/30 00:52:00;;;;;;;1.57;1.30;;;12.00;99.90;;;;;;4954640;28;20220;-69
2024/03/30 00:54:28;;;;;;;1.60;1.30;;;12.00;99.90;;;;;;4959676;28;20465;-70
2024/03/30 00:56:53;;;;;;;3.20;1.60;;;12.00;99.90;;;;;;4960928;28;20290;-70
2024/03/30 00:59:21;;;;;;;2.40;1.50;;;12.00;99.90;;;;;;4963155;28;20840;-71
2024/03/30 01:01:47;;;;;;;2.00;1.13;;;12.00;99.90;;;;;;4957214;28;20239;-70
2024/03/30 01:04:14;;;;;;;3.27;1.20;;;12.10;99.90;;;;;;4956798;28;20465;-70
2024/03/30 01:06:40;;;;;;;1.67;1.57;;;12.10;99.90;;;;;;4953381;28;20207;-70
2024/03/30 01:09:07;;;;;;;1.50;1.30;;;12.10;99.90;;;;;;4954830;28;21224;-70
2024/03/30 01:11:36;;;;;;;3.63;1.20;;;12.10;99.90;;;;;;4958643;28;20486;-70
2024/03/30 01:14:03;;;;;;;1.67;1.50;;;12.10;99.90;;;;;;4957368;28;20479;-70
2024/03/30 01:16:30;;;;;;;2.17;1.40;;;11.90;99.90;;;;;;4955831;28;20528;-70
2024/03/30 01:18:57;;;;;;;2.23;1.83;;;11.80;99.90;;;;;;4958439;28;20485;-69
2024/03/30 01:21:23;;;;;;;1.30;1.20;;;11.90;99.90;;;;;;4951088;28;20490;-69
2024/03/30 01:23:51;;;;;;;2.23;1.40;;;11.90;99.90;;;;;;4954845;28;20638;-70
2024/03/30 01:26:19;;;;;;;3.80;1.60;;;11.80;99.90;;;;;;4946094;28;20527;-70
2024/03/30 01:28:47;;;;;;;2.47;1.90;;;11.70;99.90;;;;;;4946034;28;20466;-70
2024/03/30 01:31:14;;;;;;;1.50;1.30;;;11.50;99.90;;;;;;4953371;28;20478;-70
2024/03/30 01:33:41;;;;;;;2.10;1.33;;;11.40;99.90;;;;;;4952069;28;20535;-69
2024/03/30 01:36:07;;;;;;;1.30;1.07;;;11.40;99.90;;;;;;4951175;28;20435;-70
2024/03/30 01:38:35;;;;;;;2.40;1.60;;;11.50;99.90;;;;;;4948959;28;20512;-69
2024/03/30 01:41:00;;;;;;;2.30;1.70;;;11.40;99.90;;;;;;4951274;28;20487;-69
2024/03/30 01:43:27;;;;;;;2.80;1.33;;;11.40;99.90;;;;;;4951799;28;20497;-70
2024/03/30 01:45:55;;;;;;;2.97;1.10;;;11.40;99.90;;;;;;4950672;28;20526;-70
2024/03/30 01:48:23;;;;;;;1.20;1.07;;;11.40;99.90;;;;;;4952100;28;20554;-70
2024/03/30 01:50:51;;;;;;;2.10;1.40;;;11.40;99.90;;;;;;4954619;28;20464;-70
2024/03/30 01:53:22;;;;;;;1.40;1.10;;;11.30;99.90;;;;;;4952305;28;20597;-71
2024/03/30 01:55:51;;;;;;;4.80;1.70;;;11.20;99.90;;;;;;4954700;28;20475;-69
2024/03/30 01:58:22;;;;;;;1.80;1.57;;;11.20;99.90;;;;;;4958029;28;20467;-70
2024/03/30 02:00:49;;;;;;;2.10;1.40;;;11.00;99.90;;;;;;4956220;28;20459;-69
2024/03/30 02:03:19;;;;;;;2.00;1.47;;;11.00;99.90;;;;;;4949517;28;20590;-69
2024/03/30 02:05:45;;;;;;;1.63;1.03;;;11.10;99.90;;;;;;4955322;28;20476;-70
2024/03/30 02:08:13;;;;;;;1.87;1.10;;;11.00;99.90;;;;;;4953686;28;21701;-70
2024/03/30 02:10:40;;;;;;;3.43;1.43;;;10.90;99.90;;;;;;4956301;28;20589;-70
2024/03/30 02:13:07;;;;;;;2.57;1.80;;;10.80;99.90;;;;;;4951412;28;20810;-70
2024/03/30 02:15:33;;;;;;;2.50;1.90;;;10.80;99.90;;;;;;4950497;28;20470;-70
2024/03/30 02:18:00;;;;;;;2.27;1.40;;;10.80;99.90;;;;;;4947878;28;20569;-70
2024/03/30 02:20:27;;;;;;;2.17;2.00;;;10.80;99.90;;;;;;4949975;28;20446;-71
2024/03/30 02:22:57;;;;;;;2.50;2.30;;;10.70;99.90;;;;;;4951846;28;21030;-70
2024/03/30 02:25:24;;;;;;;1.90;1.40;;;10.70;99.90;;;;;;4946870;28;20471;-70
2024/03/30 02:27:51;;;;;;;9.10;2.97;;;10.60;99.90;;;;;;4950345;28;20486;-69
2024/03/30 02:30:23;;;;;;;1.70;1.60;;;10.50;99.90;;;;;;4950546;28;20494;-69
2024/03/30 02:32:51;;;;;;;1.50;1.10;;;10.50;99.90;;;;;;4950164;28;20474;-69
2024/03/30 02:35:17;;;;;;;1.57;1.47;;;10.50;99.90;;;;;;4953227;28;21204;-70
2024/03/30 02:37:45;;;;;;;3.93;1.50;;;10.50;99.90;;;;;;4950844;28;20455;-69
2024/03/30 02:40:11;;;;;;;2.30;1.17;;;10.40;99.90;;;;;;4952912;28;20468;-69
2024/03/30 02:42:39;;;;;;;1.43;1.33;;;10.50;99.90;;;;;;4948270;28;20510;-69
2024/03/30 02:45:06;;;;;;;2.03;1.50;;;10.40;99.90;;;;;;4952499;28;20455;-69
2024/03/30 02:47:33;;;;;;;2.30;1.87;;;10.40;99.90;;;;;;4951161;28;20467;-70
2024/03/30 02:49:59;;;;;;;2.30;1.40;;;10.40;99.90;;;;;;4950944;28;20781;-69
2024/03/30 02:52:25;;;;;;;1.70;1.40;;;10.40;99.90;;;;;;4955679;28;20498;-69
2024/03/30 02:54:51;;;;;;;1.60;1.40;;;10.40;99.90;;;;;;4949773;28;20259;-69
2024/03/30 02:57:18;;;;;;;1.10;1.00;;;10.40;99.90;;;;;;4950829;28;20438;-69
2024/03/30 02:59:45;;;;;;;2.50;2.30;;;10.40;99.90;;;;;;4948641;28;20201;-69
2024/03/30 03:02:12;;;;;;;3.40;1.93;;;10.40;99.90;;;;;;4951199;28;20471;-69
2024/03/30 03:04:38;;;;;;;1.97;1.50;;;10.50;99.90;;;;;;4945751;28;20484;-69
2024/03/30 03:07:07;;;;;;;2.20;2.00;;;10.50;99.90;;;;;;4955861;28;20451;-69
2024/03/30 03:09:33;;;;;;;3.00;1.67;;;10.60;99.90;;;;;;4940811;28;20490;-69
2024/03/30 03:12:00;;;;;;;2.03;1.77;;;10.50;99.90;;;;;;4948607;28;20490;-69
2024/03/30 03:14:25;;;;;;;2.20;1.50;;;10.40;99.90;;;;;;4958021;28;20459;-69
2024/03/30 03:16:54;;;;;;;2.10;1.90;;;10.40;99.90;;;;;;4954699;28;20462;-69
2024/03/30 03:19:19;;;;;;;6.20;1.87;;;10.50;99.90;;;;;;4949657;28;20605;-69
2024/03/30 03:21:46;;;;;;;1.57;1.47;;;10.60;99.90;;;;;;4953693;28;20479;-69
2024/03/30 03:24:13;;;;;;;2.10;1.20;;;10.60;99.90;;;;;;4952042;28;20234;-69
2024/03/30 03:26:39;;;;;;;1.77;1.67;;;10.40;99.90;;;;;;4944846;28;20911;-69
2024/03/30 03:29:05;;;;;;;1.60;1.50;;;10.40;99.90;;;;;;4951647;28;20436;-69
2024/03/30 03:31:32;;;;;;;2.90;2.40;;;10.30;99.90;;;;;;4946568;28;20475;-69
2024/03/30 03:33:59;;;;;;;3.10;2.67;;;10.30;99.90;;;;;;4948465;28;21267;-71
2024/03/30 03:36:26;;;;;;;2.33;2.13;;;10.50;99.90;;;;;;4955888;28;20473;-69
2024/03/30 03:38:52;;;;;;;2.97;2.37;;;10.60;99.90;;;;;;4950695;28;20460;-70
2024/03/30 03:41:18;;;;;;;2.67;2.47;;;10.50;99.90;;;;;;4951970;28;20839;-70
2024/03/30 03:43:44;;;;;;;2.37;2.17;;;10.50;99.90;;;;;;4955154;28;20238;-69
2024/03/30 03:46:11;;;;;;;2.13;1.93;;;10.40;99.90;;;;;;4955244;28;20459;-69
2024/03/30 03:48:37;;;;;;;3.40;1.90;;;10.50;99.90;;;;;;4955104;28;20216;-70
2024/03/30 03:51:06;;;;;;;1.90;1.60;;;10.50;99.90;;;;;;4951455;28;20861;-69
2024/03/30 03:53:31;;;;;;;2.20;2.03;;;10.50;99.90;;;;;;4956334;28;20199;-69
2024/03/30 03:55:58;;;;;;;2.23;2.03;;;10.40;99.90;;;;;;4954356;28;20816;-69
2024/03/30 03:58:24;;;;;;;1.90;1.40;;;10.30;99.90;;;;;;4951678;28;20239;-68
2024/03/30 04:00:51;;;;;;;3.97;2.10;;;10.30;99.90;;;;;;4955320;28;20429;-68
2024/03/30 04:03:16;;;;;;;1.97;1.50;;;10.30;99.90;;;;;;4951506;28;20224;-69
2024/03/30 04:05:43;;;;;;;2.57;2.10;;;10.40;99.90;;;;;;4954027;28;20511;-69
2024/03/30 04:08:10;;;;;;;3.50;2.43;;;10.50;99.90;;;;;;4952398;28;20219;-70
2024/03/30 04:10:37;;;;;;;2.10;1.90;;;10.40;99.90;;;;;;4951490;28;20511;-69
2024/03/30 04:13:03;;;;;;;3.10;2.53;;;10.40;99.90;;;;;;4953169;28;20463;-69
2024/03/30 04:15:30;;;;;;;4.07;2.50;;;10.50;99.90;;;;;;4961558;28;20459;-69
2024/03/30 04:17:56;;;;;;;2.60;2.30;;;10.50;99.90;;;;;;4961223;28;20459;-69
2024/03/30 04:20:22;;;;;;;3.00;2.07;;;10.60;99.90;;;;;;4954225;28;20454;-69
2024/03/30 04:22:48;;;;;;;2.53;2.03;;;10.50;99.90;;;;;;4952649;28;20673;-69
2024/03/30 04:25:16;;;;;;;2.40;1.80;;;10.50;99.90;;;;;;4956176;28;20459;-69
2024/03/30 04:27:42;;;;;;;4.03;2.30;;;10.50;99.90;;;;;;4948815;28;20763;-69
2024/03/30 04:30:11;;;;;;;4.20;2.37;;;10.60;99.90;;;;;;4950990;28;20430;-69
2024/03/30 04:32:37;;;;;;;2.30;1.97;;;10.70;99.90;;;;;;4956980;28;20672;-69
2024/03/30 04:35:04;;;;;;;3.87;2.07;;;10.70;99.90;;;;;;4954537;28;20455;-70
2024/03/30 04:37:31;;;;;;;3.07;1.80;;;10.70;99.90;;;;;;4955877;28;20691;-70
2024/03/30 04:39:57;;;;;;;2.80;2.27;;;10.60;99.90;;;;;;4951513;28;20463;-70
2024/03/30 04:42:26;;;;;;;3.17;2.80;;;10.60;99.90;;;;;;4955124;28;20491;-69
2024/03/30 04:44:51;;;;;;;2.80;2.37;;;10.60;99.90;;;;;;4947208;28;20715;-69
2024/03/30 04:47:18;;;;;;;3.47;2.40;;;10.60;99.90;;;;;;4955255;28;20541;-69
2024/03/30 04:49:44;;;;;;;2.87;2.20;;;10.50;99.90;;;;;;4952447;28;20208;-69
2024/03/30 04:52:11;;;;;;;2.70;2.50;;;10.60;99.90;;;;;;4952283;28;20449;-70
2024/03/30 04:54:36;;;;;;;5.67;2.83;;;10.60;99.90;;;;;;4959575;28;20223;-69
2024/03/30 04:57:03;;;;;;;3.90;2.20;;;10.60;99.90;;;;;;4958446;28;20527;-69
2024/03/30 04:59:31;;;;;;;2.70;2.17;;;10.60;99.90;;;;;;4954955;28;20691;-69
2024/03/30 05:01:57;;;;;;;2.70;2.20;;;10.70;99.90;;;;;;4949968;28;20971;-70
2024/03/30 05:04:23;;;;;;;4.03;2.83;;;10.60;99.90;;;;;;4955574;28;20491;-69
2024/03/30 05:06:50;;;;;;;4.07;2.60;;;10.60;99.90;;;;;;4951962;28;21241;-69
2024/03/30 05:09:16;;;;;;;3.80;2.13;;;10.60;99.90;;;;;;4951145;28;20200;-69
2024/03/30 05:11:43;;;;;;;3.57;2.07;;;10.60;99.90;;;;;;4952023;28;20545;-70
2024/03/30 05:14:09;;;;;;;3.93;2.47;;;10.50;99.90;;;;;;4950693;28;20665;-70
2024/03/30 05:16:36;;;;;;;3.20;2.37;;;10.50;99.90;;;;;;4950347;28;20478;-71
2024/03/30 05:20:42;;;;;;;9.30;2.33;;;10.50;99.90;;;;;;4953089;28;20858;-71
2024/03/30 05:21:51;;;;;;;10.43;4.40;;;10.60;99.90;;;;;;4952974;28;20452;-71
2024/03/30 05:24:18;;;;;;;15.60;8.03;;;10.60;99.90;;;;;;4953689;28;20526;-71
2024/03/30 05:26:44;;;;;;;13.30;3.20;;;10.60;99.90;;;;;;4951685;28;20464;-70
2024/03/30 05:29:11;;;;;;;7.47;5.00;;;10.50;99.90;;;;;;4949373;28;20463;-70
2024/03/30 05:31:38;;;;;;;3.00;2.33;;;10.50;99.90;;;;;;4950496;28;21917;-69
2024/03/30 05:34:04;;;;;;;3.83;2.53;;;10.60;99.90;;;;;;4956436;28;20451;-69
2024/03/30 05:36:30;;;;;;;4.20;2.70;;;10.60;99.90;;;;;;4958592;28;20501;-69
2024/03/30 05:38:57;;;;;;;12.60;4.20;;;10.60;99.90;;;;;;4954897;28;21296;-69
2024/03/30 05:41:23;;;;;;;5.90;3.70;;;10.60;99.90;;;;;;4952889;28;20223;-69
2024/03/30 05:43:49;;;;;;;6.70;2.97;;;10.60;99.90;;;;;;4948446;28;20490;-69
2024/03/30 05:46:22;;;;;;;4.00;3.57;;;10.60;99.90;;;;;;4950910;28;21245;-70
2024/03/30 05:48:50;;;;;;;6.00;4.57;;;10.70;99.90;;;;;;4962063;28;20460;-69
2024/03/30 05:51:16;;;;;;;6.17;3.80;;;10.70;99.90;;;;;;4959331;28;20487;-70
2024/03/30 05:53:46;;;;;;;5.40;4.27;;;10.60;99.90;;;;;;4961394;28;20965;-70
2024/03/30 05:56:12;;;;;;;4.20;2.80;;;10.70;99.90;;;;;;4958229;28;20251;-69
2024/03/30 05:58:39;;;;;;;2.87;2.30;;;10.80;99.90;;;;;;4956053;28;20426;-69
2024/03/30 06:01:05;;;;;;;3.40;3.07;;;10.80;99.90;;;;;;4955877;28;20482;-69
2024/03/30 06:03:31;;;;;;;4.57;3.10;;;10.80;99.90;;;;;;4957924;28;20461;-69
2024/03/30 06:05:58;;;;;;;6.80;2.80;;;10.90;99.90;;;;;;4961061;28;20220;-69
2024/03/30 06:08:25;;;;;;;6.13;3.67;;;10.90;99.90;;;;;;4958688;28;20553;-69
2024/03/30 06:10:51;;;;;;;8.00;4.03;;;10.90;99.90;;;;;;4957960;28;20491;-69
2024/03/30 06:13:18;;;;;;;6.90;3.50;;;11.10;99.90;;;;;;4957234;28;20456;-69
2024/03/30 06:15:43;;;;;;;6.47;3.37;;;11.10;99.90;;;;;;4961904;28;20231;-70
2024/03/30 06:18:10;;;;;;;10.53;7.80;;;11.10;99.90;;;;;;4955579;28;20519;-69
2024/03/30 06:20:36;;;;;;;5.60;3.77;;;11.00;99.90;;;;;;4961655;28;20247;-69
2024/03/30 06:23:04;;;;;;;6.83;4.67;;;11.10;99.90;;;;;;4952925;28;20461;-69
2024/03/30 06:25:30;;;;;;;4.17;2.50;;;11.20;99.90;;;;;;4955420;28;20228;-69
2024/03/30 06:27:57;;;;;;;5.00;2.60;;;11.20;99.90;;;;;;4961168;28;20434;-69
2024/03/30 06:30:23;;;;;;;6.10;2.90;;;11.20;99.90;;;;;;4957427;28;20560;-69
2024/03/30 06:32:50;;;;;;;8.07;3.83;;;11.30;99.90;;;;;;4948569;28;20514;-69
2024/03/30 06:35:15;;;;;;;8.67;3.53;;;11.20;99.90;;;;;;4956475;28;20455;-69
2024/03/30 06:37:42;;;;;;;6.30;3.80;;;11.30;99.90;;;;;;4957443;28;20464;-69
2024/03/30 06:45:54;;;;;;;5.30;2.67;;;11.60;99.90;;;;;;4894925;29;21003;-69
2024/03/30 06:48:21;;;;;;;6.37;2.67;;;11.70;99.90;;;;;;4928517;28;20856;-69
2024/03/30 06:50:48;;;;;;;4.97;3.10;;;11.70;99.90;;;;;;4952043;28;20461;-69
2024/03/30 06:53:15;;;;;;;9.80;4.10;;;11.70;99.90;;;;;;4961370;28;20459;-69
2024/03/30 06:55:42;;;;;;;3.80;2.90;;;11.70;99.90;;;;;;4950243;28;20463;-70
2024/03/30 06:58:10;;;;;;;4.47;3.57;;;11.80;99.90;;;;;;4952674;28;20459;-70
2024/03/30 07:00:36;;;;;;;6.00;3.63;;;11.80;99.90;;;;;;4955649;28;20479;-70
2024/03/30 07:03:03;;;;;;;4.03;2.70;;;11.90;99.90;;;;;;4959403;28;20479;-69
2024/03/30 07:05:29;;;;;;;3.20;2.90;;;12.10;99.90;;;;;;4951625;28;20499;-70
2024/03/30 07:07:56;;;;;;;4.07;3.10;;;12.20;99.90;;;;;;4949499;28;20623;-68
2024/03/30 07:10:22;;;;;;;3.90;2.90;;;12.30;99.90;;;;;;4945490;28;20204;-69
2024/03/30 07:12:54;;;;;;;5.20;3.17;;;12.70;99.90;;;;;;4952623;28;20482;-69
2024/03/30 07:15:20;;;;;;;4.43;3.17;;;12.80;99.90;;;;;;4954171;28;20205;-69
2024/03/30 07:17:47;;;;;;;3.90;2.57;;;12.90;99.90;;;;;;4954375;28;20451;-69
2024/03/30 07:20:13;;;;;;;5.63;3.90;;;13.00;99.90;;;;;;4949578;28;20460;-69
2024/03/30 07:22:40;;;;;;;3.37;2.60;;;13.00;99.90;;;;;;4952281;28;22240;-69
2024/03/30 07:25:07;;;;;;;3.67;2.70;;;12.90;99.90;;;;;;4955465;28;21151;-70
2024/03/30 07:27:34;;;;;;;3.40;2.90;;;12.90;99.90;;;;;;4951165;28;20974;-69
2024/03/30 07:30:02;;;;;;;3.80;3.10;;;12.50;99.90;;;;;;4949313;28;20860;-69
2024/03/30 07:32:28;;;;;;;4.70;3.40;;;12.40;99.90;;;;;;4951133;28;20515;-69
2024/03/30 07:34:54;;;;;;;4.13;2.83;;;12.50;99.90;;;;;;4952614;28;20460;-69
2024/03/30 07:37:21;;;;;;;4.70;2.40;;;12.40;99.90;;;;;;4949932;28;20466;-70
2024/03/30 07:39:47;;;;;;;4.13;2.93;;;12.30;99.90;;;;;;4951249;28;20208;-70
2024/03/30 07:42:14;;;;;;;4.83;3.33;;;12.30;99.90;;;;;;4943496;28;21093;-69
2024/03/30 07:44:40;;;;;;;3.80;3.27;;;12.40;99.90;;;;;;4950821;28;20262;-69
2024/03/30 07:47:09;;;;;;;3.83;3.00;;;12.40;99.90;;;;;;4950902;28;20469;-70
2024/03/30 07:49:35;;;;;;;3.60;2.00;;;12.50;99.90;;;;;;4954231;28;20438;-70
2024/03/30 07:52:02;;;;;;;4.07;3.10;;;12.70;99.90;;;;;;4953785;28;20471;-70
2024/03/30 07:54:28;;;;;;;5.27;3.10;;;12.70;99.90;;;;;;4951388;28;24716;-71
2024/03/30 07:56:55;;;;;;;4.93;2.87;;;12.80;99.90;;;;;;4942353;28;20931;-71
2024/03/30 07:59:22;;;;;;;3.37;3.00;;;12.80;99.90;;;;;;4951552;28;20499;-69
2024/03/30 08:01:55;;;;;;;4.70;4.27;;;12.70;99.90;;;;;;4943518;28;20578;-70
2024/03/30 08:04:23;;;;;;;3.50;2.60;;;12.80;99.90;;;;;;4945086;28;20528;-70
2024/03/30 08:06:51;;;;;;;3.77;2.90;;;12.80;99.90;;;;;;4952709;28;20529;-70
2024/03/30 08:09:18;;;;;;;4.13;2.93;;;12.90;99.90;;;;;;4948454;28;20902;-70
2024/03/30 08:11:45;;;;;;;2.93;2.50;;;12.90;99.90;;;;;;4948500;28;20454;-70
2024/03/30 08:14:12;;;;;;;4.10;3.50;;;12.90;99.90;;;;;;4932975;28;20513;-70
2024/03/30 08:16:43;;;;;;;6.40;2.90;;;12.80;99.90;;;;;;4943834;28;20452;-70
2024/03/30 08:19:10;;;;;;;4.93;3.57;;;12.70;99.90;;;;;;4944882;28;21550;-70
2024/03/30 08:21:49;;;;;;;5.27;3.50;;;12.70;99.90;;;;;;4950070;28;20474;-70
2024/03/30 08:24:15;;;;;;;3.70;3.17;;;12.80;99.90;;;;;;4940270;28;20629;-70
2024/03/30 08:26:44;;;;;;;6.53;3.10;;;13.00;99.90;;;;;;4952086;28;20967;-70
2024/03/30 08:29:10;;;;;;;4.47;3.83;;;13.10;99.90;;;;;;4943165;28;20651;-70
2024/03/30 08:31:37;;;;;;;5.73;5.23;;;13.20;99.90;;;;;;4947216;28;20474;-69
2024/03/30 08:34:03;;;;;;;4.23;3.63;;;13.10;99.90;;;;;;4940454;28;20210;-70
2024/03/30 08:36:30;;;;;;;7.23;4.40;;;13.00;99.90;;;;;;4952234;28;20433;-69
2024/03/30 08:38:57;;;;;;;6.30;3.33;;;13.10;99.90;;;;;;4954531;28;20471;-70
2024/03/30 08:41:23;;;;;;;6.70;3.33;;;13.10;99.90;;;;;;4948943;28;20991;-70
2024/03/30 08:43:49;;;;;;;3.30;2.40;;;13.10;99.90;;;;;;4944562;28;20466;-71
2024/03/30 08:46:16;;;;;;;3.13;2.83;;;13.10;99.90;;;;;;4953250;28;20459;-71
2024/03/30 08:48:42;;;;;;;2.90;2.43;;;13.10;99.90;;;;;;4955045;28;20227;-70
2024/03/30 08:51:09;;;;;;;3.80;2.83;;;13.30;99.90;;;;;;4960722;28;20475;-69
2024/03/30 08:53:34;;;;;;;2.93;2.50;;;13.40;99.90;;;;;;4955781;28;20573;-70
2024/03/30 08:56:03;;;;;;;3.83;2.77;;;13.70;99.90;;;;;;4959675;28;20477;-70
2024/03/30 08:58:30;;;;;;;3.23;2.73;;;14.30;99.90;;;;;;4957556;28;20208;-70
2024/03/30 09:00:57;;;;;;;4.03;2.93;;;15.10;99.90;;;;;;4965191;28;20486;-70
2024/03/30 09:03:23;;;;;;;3.60;2.83;;;16.00;99.90;;;;;;4954847;28;21964;-70
2024/03/30 09:05:50;;;;;;;3.30;3.00;;;17.20;99.90;;;;;;4957551;28;21048;-71
2024/03/30 09:08:16;;;;;;;3.13;2.77;;;18.50;99.90;;;;;;4960723;28;20477;-69
2024/03/30 09:10:43;;;;;;;2.50;2.30;;;19.50;99.90;;;;;;4945478;28;20466;-70
2024/03/30 09:13:10;;;;;;;2.63;2.43;;;20.00;99.90;;;;;;4948427;28;20201;-70
2024/03/30 09:15:37;;;;;;;5.07;2.80;;;20.30;99.90;;;;;;4956843;28;20536;-70
2024/03/30 09:18:03;;;;;;;6.90;2.73;;;20.80;99.90;;;;;;4953149;28;20481;-69
2024/03/30 09:20:30;;;;;;;4.00;2.07;;;21.50;99.90;;;;;;4945548;28;21162;-70
2024/03/30 09:22:56;;;;;;;12.60;2.60;;;21.80;99.90;;;;;;4953938;28;20483;-70
2024/03/30 09:25:22;;;;;;;6.30;3.40;;;21.30;99.90;;;;;;4956142;28;20873;-70
2024/03/30 09:27:48;;;;;;;3.53;2.90;;;20.90;99.90;;;;;;4953734;28;20215;-69
2024/03/30 09:30:16;;;;;;;6.40;3.50;;;20.90;99.90;;;;;;4952784;28;20456;-70
2024/03/30 09:32:44;;;;;;;5.73;2.53;;;20.10;99.90;;;;;;4953345;28;20731;-70
2024/03/30 09:35:11;;;;;;;2.70;2.40;;;19.50;99.90;;;;;;4955738;28;20463;-70
2024/03/30 09:37:37;;;;;;;2.73;2.53;;;19.00;99.90;;;;;;4954200;28;20474;-70
2024/03/30 09:40:05;;;;;;;5.57;2.40;;;18.80;99.90;;;;;;4961845;28;20474;-71
2024/03/30 09:42:32;;;;;;;4.50;2.87;;;18.90;99.90;;;;;;4957498;28;20494;-71
2024/03/30 09:45:00;;;;;;;5.60;3.00;;;18.90;99.90;;;;;;4950430;28;20476;-70
2024/03/30 09:47:30;;;;;;;10.73;4.20;;;18.50;99.90;;;;;;4949397;28;20979;-72
2024/03/30 09:50:01;;;;;;;3.87;2.70;;;18.40;99.90;;;;;;4954672;28;20557;-70
2024/03/30 09:52:28;;;;;;;5.10;2.43;;;18.70;99.90;;;;;;4962103;28;20481;-71
2024/03/30 09:54:57;;;;;;;6.73;2.43;;;18.70;99.90;;;;;;4954036;28;20463;-72
2024/03/30 09:57:24;;;;;;;8.67;3.00;;;19.00;99.90;;;;;;4950858;28;20478;-69
2024/03/30 09:59:51;;;;;;;12.30;3.47;;;19.30;99.90;;;;;;4956039;28;20463;-71
2024/03/30 10:02:18;;;;;;;2.47;1.80;;;19.40;99.90;;;;;;4955309;28;20487;-70
2024/03/30 10:04:45;;;;;;;8.70;2.70;;;19.60;99.90;;;;;;4954766;28;20509;-70
2024/03/30 10:07:15;;;;;;;25.03;2.87;;;19.10;99.90;;;;;;4956812;28;20940;-71
2024/03/30 10:09:41;;;;;;;9.43;2.33;;;19.10;99.90;;;;;;4958759;28;20485;-71
2024/03/30 10:12:22;;;;;;;13.00;3.70;;;19.30;99.90;;;;;;4956826;28;20483;-70
2024/03/30 10:14:50;;;;;;;9.17;1.67;;;19.70;99.90;;;;;;4956554;28;20828;-71
2024/03/30 10:17:17;;;;;;;15.53;3.10;;;19.50;99.90;;;;;;4960279;28;20546;-72
2024/03/30 10:19:43;;;;;;;13.10;3.43;;;19.50;99.90;;;;;;4958122;28;20463;-71
2024/03/30 10:22:12;;;;;;;8.63;2.50;;;19.70;99.90;;;;;;4965986;28;21002;-71
2024/03/30 10:24:38;;;;;;;13.13;3.47;;;19.80;99.90;;;;;;4954684;28;20483;-71
2024/03/30 10:27:05;;;;;;;11.80;3.93;;;19.80;99.90;;;;;;4953398;28;20471;-70
2024/03/30 10:29:31;;;;;;;10.93;5.70;;;20.00;99.90;;;;;;4958560;28;20971;-69
2024/03/30 10:31:57;;;;;;;5.07;2.20;;;20.10;99.90;;;;;;4953293;28;20605;-71
2024/03/30 10:34:26;;;;;;;19.63;2.90;;;20.00;99.90;;;;;;4957385;28;20223;-71
2024/03/30 10:36:58;;;;;;;29.53;3.70;;;20.00;99.90;;;;;;4952339;28;20455;-71
2024/03/30 10:39:27;;;;;;;16.30;4.40;;;20.40;99.90;;;;;;4959553;28;20471;-70
2024/03/30 10:41:54;;;;;;;15.67;3.97;;;20.50;99.90;;;;;;4960316;28;20495;-71
2024/03/30 10:44:24;;;;;;;24.57;3.93;;;20.50;99.90;;;;;;4952299;28;20471;-71
2024/03/30 10:46:52;;;;;;;14.67;3.73;;;20.50;99.90;;;;;;4959949;28;20481;-72
2024/03/30 10:49:18;;;;;;;27.93;3.47;;;20.50;99.90;;;;;;4959497;28;20467;-71
2024/03/30 10:51:45;;;;;;;17.73;3.47;;;20.70;99.90;;;;;;4961301;28;20578;-71
2024/03/30 10:54:14;;;;;;;27.13;5.07;;;20.70;99.90;;;;;;4965242;28;20463;-70
2024/03/30 10:56:48;;;;;;;35.00;3.20;;;20.90;99.90;;;;;;4960298;28;20587;-71
2024/03/30 10:59:16;;;;;;;7.67;2.40;;;20.90;99.90;;;;;;4963721;28;20463;-72
2024/03/30 11:01:44;;;;;;;11.40;3.70;;;20.60;99.90;;;;;;4960169;28;20475;-71
2024/03/30 11:04:13;;;;;;;6.00;2.87;;;20.30;99.50;;;;;;4955379;28;20464;-71
2024/03/30 11:06:40;;;;;;;13.87;3.10;;;20.00;99.90;;;;;;4958899;28;20506;-70
2024/03/30 11:09:07;;;;;;;14.47;2.93;;;19.80;99.90;;;;;;4945746;28;20533;-71
2024/03/30 11:11:34;;;;;;;24.30;3.17;;;19.80;99.90;;;;;;4953492;28;20818;-70
2024/03/30 11:14:03;;;;;;;42.23;5.60;;;19.70;99.90;;;;;;4950246;28;20474;-71
2024/03/30 11:16:36;;;;;;;11.70;2.83;;;19.70;99.90;;;;;;4950245;28;20467;-71
2024/03/30 11:19:11;;;;;;;15.03;6.07;;;19.80;99.60;;;;;;4955598;28;20462;-70
2024/03/30 11:21:44;;;;;;;24.00;4.10;;;19.80;99.30;;;;;;4952442;28;20501;-71
2024/03/30 11:24:14;;;;;;;20.03;6.23;;;19.80;99.90;;;;;;4949481;28;20455;-71
2024/03/30 11:26:51;;;;;;;10.43;3.20;;;19.90;99.20;;;;;;4955638;28;20604;-71
2024/03/30 11:29:31;;;;;;;12.27;3.07;;;19.80;99.10;;;;;;4960179;28;21087;-71
2024/03/30 11:32:07;;;;;;;9.90;2.50;;;19.60;99.50;;;;;;4950788;28;20594;-71
2024/03/30 11:34:46;;;;;;;17.33;6.57;;;19.50;99.30;;;;;;4951046;28;20515;-70
2024/03/30 11:37:19;;;;;;;13.47;3.47;;;19.50;99.20;;;;;;4952814;28;20538;-71
2024/03/30 11:39:56;;;;;;;11.13;2.40;;;19.50;99.30;;;;;;4956785;28;20458;-71
2024/03/30 11:42:32;;;;;;;9.40;2.23;;;19.50;99.60;;;;;;4958239;28;21030;-71
2024/03/30 11:45:02;;;;;;;11.60;4.40;;;19.50;99.60;;;;;;4953671;28;20622;-70
2024/03/30 11:47:29;;;;;;;23.87;5.10;;;19.50;99.90;;;;;;4953765;28;20819;-70
2024/03/30 11:49:56;;;;;;;22.73;3.90;;;19.40;99.10;;;;;;4955431;28;20557;-71
2024/03/30 11:52:21;;;;;;;19.80;5.90;;;19.10;99.70;;;;;;4951235;28;20602;-70
2024/03/30 11:54:48;;;;;;;17.60;2.93;;;19.10;99.80;;;;;;4957979;28;21103;-71
2024/03/30 11:57:14;;;;;;;23.50;3.70;;;19.10;99.90;;;;;;4954454;28;20770;-71
2024/03/30 11:59:43;;;;;;;18.30;4.97;;;19.10;99.90;;;;;;4950332;28;20501;-72
2024/03/30 12:02:11;;;;;;;29.07;5.17;;;19.10;99.90;;;;;;4957624;28;20494;-71
2024/03/30 12:04:38;;;;;;;10.30;3.47;;;18.90;99.90;;;;;;4954523;28;20677;-71
2024/03/30 12:07:06;;;;;;;17.50;3.90;;;19.00;99.90;;;;;;4964432;28;20475;-71
2024/03/30 12:09:33;;;;;;;11.20;3.13;;;19.00;99.90;;;;;;4958580;28;20541;-71
2024/03/30 12:12:10;;;;;;;30.70;4.93;;;19.10;99.90;;;;;;4957749;28;20598;-72
2024/03/30 12:14:39;;;;;;;10.80;3.77;;;19.10;99.90;;;;;;4953493;28;21199;-71
2024/03/30 12:17:05;;;;;;;17.50;3.20;;;18.90;99.90;;;;;;4955580;28;21878;-72
2024/03/30 12:19:35;;;;;;;9.80;3.83;;;18.90;99.90;;;;;;4956533;28;20467;-71
2024/03/30 12:22:01;;;;;;;8.97;2.57;;;18.90;99.90;;;;;;4960009;28;20483;-70
2024/03/30 12:24:28;;;;;;;9.47;4.30;;;18.80;99.90;;;;;;4960819;28;20546;-71
2024/03/30 12:26:54;;;;;;;19.43;3.10;;;18.80;99.90;;;;;;4962262;28;20471;-71
2024/03/30 12:29:21;;;;;;;12.63;2.50;;;18.90;99.90;;;;;;4960919;28;20561;-71
2024/03/30 12:31:47;;;;;;;27.00;5.03;;;19.00;99.90;;;;;;4962197;28;20490;-71
2024/03/30 12:34:14;;;;;;;10.73;4.00;;;19.10;99.90;;;;;;4961397;28;20454;-71
2024/03/30 12:36:42;;;;;;;12.93;3.83;;;19.10;99.90;;;;;;4953729;28;20798;-70
2024/03/30 12:39:09;;;;;;;9.90;4.53;;;19.10;99.90;;;;;;4960460;28;20463;-70
2024/03/30 12:41:35;;;;;;;24.80;4.80;;;19.00;99.90;;;;;;4953947;28;20490;-72
2024/03/30 12:44:03;;;;;;;21.33;5.87;;;18.80;99.90;;;;;;4957087;28;20882;-70
2024/03/30 12:46:29;;;;;;;12.97;3.50;;;18.90;99.90;;;;;;4961468;28;20226;-71
2024/03/30 12:49:01;;;;;;;16.73;4.07;;;18.70;99.90;;;;;;4972460;28;20470;-72
2024/03/30 12:51:27;;;;;;;13.50;2.53;;;18.70;99.90;;;;;;4962150;28;20490;-70